• Join FlightAware (Why Join?)
  • Login
  • US Flag 
Gobble Gobble! 
07:25PM EST


 

Airport Tracker/Info


-or-


 

Live Flight TrackerFlight Track Log ✈ N75ZM ✈ 04-Oct-2013 ✈ KPDK - KFPR

Flight Track Log - Related Links

Times and Time Zones

All times are in EDT time to prevent confusion due to time zone crossing. See the N75ZM flight status page for this flight to view local times or setup timezone preferences in your user account.

Time Position Orientation Groundspeed Altitude Reporting Facility
EDT Latitude Longitude Course Direction KTS MPH feet Rate Location/Type
08:07AM 33.8833 -84.3000 40° Northeast 81 93 1,600  Level Atlanta TRACON
08:08AM 33.9000 -84.2833 40° Northeast 126 145 2,300 720 Climbing Atlanta TRACON
08:09AM 33.9000 -84.2333 90° East 129 148 3,100 720 Climbing Atlanta TRACON
08:10AM 33.8833 -84.2000 121° Southeast 137 158 3,800 480 Climbing Atlanta TRACON
08:11AM 33.8500 -84.1833 157° South 145 167 4,100 120 Climbing Atlanta TRACON
08:12AM 33.8000 -84.1667 165° South 166 191 4,100  Level Atlanta TRACON
08:13AM 33.7667 -84.1333 140° Southeast 173 199 4,100  Level Atlanta TRACON
08:14AM 33.7167 -84.1167 165° South 175 201 4,100  Level Atlanta TRACON
08:15AM 33.6667 -84.1000 164° South 172 198 4,100  Level Atlanta TRACON
08:16AM 33.6167 -84.0833 164° South 173 199 4,100  Level Atlanta TRACON
08:17AM 33.5833 -84.0500 140° Southeast 178 205 4,100  Level Atlanta TRACON
08:18AM 33.5333 -84.0333 164° South 173 199 4,100 180 Level Atlanta TRACON
08:19AM 33.4833 -84.0167 164° South 169 194 4,500 420 Climbing Atlanta TRACON
08:20AM 33.4500 -84.0000 157° South 149 171 5,000 420 Climbing Atlanta TRACON
08:21AM 33.4167 -83.9667 140° Southeast 153 176 5,400 420 Climbing Atlanta TRACON
08:22AM 33.3833 -83.9333 140° Southeast 151 174 5,900 480 Climbing Atlanta TRACON
08:23AM 33.3500 -83.9167 157° South 150 173 6,400 480 Climbing Atlanta TRACON
08:24AM 33.3000 -83.8833 151° Southeast 153 176 6,900 480 Climbing Atlanta TRACON
08:25AM 33.2667 -83.8667 157° South 152 175 7,400 480 Climbing Atlanta TRACON
08:26AM 33.2333 -83.8333 140° Southeast 147 169 7,900 480 Climbing Atlanta TRACON
08:27AM 33.2000 -83.8167 157° South 142 163 8,400 360 Climbing Atlanta TRACON
08:28AM 33.1667 -83.7833 140° Southeast 149 171 8,700 240 Climbing Atlanta TRACON
08:29AM 33.1333 -83.7667 157° South 154 177 8,900 180 Climbing Atlanta TRACON
08:30AM 33.1000 -83.7333 140° Southeast 160 184 9,100 60 Climbing Atlanta TRACON
08:31AM 33.0500 -83.7000 151° Southeast 170 196 9,100  Level Atlanta TRACON
08:32AM 33.0167 -83.6667 140° Southeast 170 196 9,100  Level Atlanta TRACON
08:33AM 32.9667 -83.6500 164° South 169 194 9,100  Level Atlanta TRACON
08:34AM 32.9333 -83.6167 140° Southeast 167 192 9,100  Level Atlanta TRACON
08:35AM 32.9000 -83.5833 140° Southeast 168 193 9,100  Level Atlanta TRACON
08:36AM 32.8500 -83.5667 164° South 169 194 9,100  Level Atlanta TRACON
08:37AM 32.8167 -83.5333 140° Southeast 170 196 9,100  Level Atlanta TRACON
08:38AM 32.7667 -83.5000 151° Southeast 171 197 9,100  Level Atlanta TRACON
08:39AM 32.7333 -83.4667 140° Southeast 170 196 9,100  Level Atlanta TRACON
08:40AM 32.7000 -83.4500 157° South 169 194 9,100  Level Atlanta TRACON
08:41AM 32.6500 -83.4167 151° Southeast 168 193 9,100  Level Atlanta TRACON
08:42AM 32.6167 -83.3833 140° Southeast 167 192 9,100  Level Atlanta TRACON
08:43AM 32.5667 -83.3667 164° South 168 193 9,100  Level Atlanta TRACON
08:44AM 32.5333 -83.3333 140° Southeast 166 191 9,100  Level Atlanta TRACON
08:45AM 32.5000 -83.3000 140° Southeast 167 192 9,100  Level Atlanta TRACON
08:46AM 32.4500 -83.2667 151° Southeast 168 193 9,100  Level Atlanta TRACON
08:47AM 32.4167 -83.2500 157° South 167 192 9,100  Level Atlanta TRACON
08:49AM 32.3603 -83.2075 148° Southeast 184 212 9,100  Level Jacksonville Center
08:50AM 32.3186 -83.1778 149° Southeast 177 204 9,100  Level Jacksonville Center
08:51AM 32.2789 -83.1481 148° Southeast 177 204 9,100  Level Jacksonville Center
08:52AM 32.2394 -83.1186 148° Southeast 171 197 9,200  Climbing Jacksonville Center
08:53AM 32.1978 -83.0889 149° Southeast 171 197 9,100  Descending Jacksonville Center
08:54AM 32.1581 -83.0644 152° Southeast 171 197 9,200  Climbing Jacksonville Center
08:55AM 32.1183 -83.0347 148° Southeast 171 197 9,100  Descending Jacksonville Center
08:56AM 32.0747 -83.0053 150° Southeast 171 197 9,200  Climbing Jacksonville Center
08:57AM 32.0350 -82.9758 148° Southeast 171 197 9,100  Descending Jacksonville Center
08:58AM 31.9953 -82.9489 150° Southeast 171 197 9,200  Climbing Jacksonville Center
08:59AM 31.9536 -82.9194 149° Southeast 171 197 9,100  Descending Jacksonville Center
09:00AM 31.9119 -82.8903 149° Southeast 171 197 9,200  Climbing Jacksonville Center
09:01AM 31.8722 -82.8608 148° Southeast 171 197 9,100  Descending Jacksonville Center
09:02AM 31.8325 -82.8339 150° Southeast 166 191 9,200  Climbing Jacksonville Center
09:03AM 31.7906 -82.8044 149° Southeast 166 191 9,100 -60 Descending Jacksonville Center
09:04AM 31.7511 -82.7753 148° Southeast 166 191 9,100  Level Jacksonville Center
09:05AM 31.7133 -82.7486 149° Southeast 166 191 9,100  Level Jacksonville Center
09:06AM 31.6694 -82.7242 155° Southeast 166 191 9,200  Climbing Jacksonville Center
09:07AM 31.6319 -82.6925 144° Southeast 166 191 9,200  Level Jacksonville Center
09:08AM 31.5900 -82.6658 152° Southeast 166 191 9,200 -60 Level Jacksonville Center
09:09AM 31.5567 -82.6389 145° Southeast 166 191 9,100  Descending Jacksonville Center
09:10AM 31.5147 -82.6122 152° Southeast 166 191 9,200  Climbing Jacksonville Center
09:11AM 31.4750 -82.5856 150° Southeast 166 191 9,100  Descending Jacksonville Center
09:12AM 31.4458 -82.5639 148° Southeast 166 191 9,200  Climbing Jacksonville Center
09:13AM 31.4039 -82.5347 149° Southeast 166 191 9,100 -60 Descending Jacksonville Center
09:14AM 31.3581 -82.5106 156° South 166 191 9,100  Level Jacksonville Center
09:15AM 31.3181 -82.4817 148° Southeast 166 191 9,200  Climbing Jacksonville Center
09:16AM 31.2806 -82.4525 146° Southeast 166 191 9,100  Descending Jacksonville Center
09:17AM 31.2428 -82.4261 149° Southeast 166 191 9,200  Climbing Jacksonville Center
09:18AM 31.2031 -82.3994 150° Southeast 166 191 9,100 -60 Descending Jacksonville Center
09:19AM 31.1633 -82.3706 148° Southeast 166 191 9,100 60 Level Jacksonville Center
09:20AM 31.1297 -82.3464 148° Southeast 164 189 9,300 300 Climbing Jacksonville Center
09:20AM 31.1236 -82.3442 163° South 166 191 9,400 480 Climbing Jacksonville Center
09:20AM 31.1025 -82.3272 145° Southeast 154 177 9,700 360 Climbing Jacksonville Center
09:21AM 31.0900 -82.3200 154° Southeast 161 185 9,800 240 Climbing Jacksonville Center
09:21AM 31.0711 -82.3056 147° Southeast 136 157 10,000 300 Climbing Jacksonville Center
09:22AM 31.0564 -82.2961 151° Southeast 155 178 10,100 180 Climbing Jacksonville Center
09:22AM 31.0356 -82.2792 145° Southeast 144 166 10,200 60 Climbing Jacksonville Center
09:23AM 31.0208 -82.2719 157° South 155 178 10,200  Level Jacksonville Center
09:23AM 30.9936 -82.2503 146° Southeast 162 186 10,200 -120 Level Jacksonville Center
09:24AM 30.9811 -82.2456 162° South 155 178 10,100  Descending Jacksonville Center
09:24AM 30.9517 -82.2239 148° Southeast 170 196 10,200 60 Climbing Jacksonville Center
09:25AM 30.9411 -82.2167 150° Southeast 166 191 10,200  Level Jacksonville Center
09:25AM 30.9161 -82.2000 150° Southeast 170 196 10,200  Level Jacksonville Center
09:26AM 30.9014 -82.1906 151° Southeast 166 191 10,200  Level Jacksonville Center
09:26AM 30.8742 -82.1714 149° Southeast 170 196 10,200  Level Jacksonville Center
09:27AM 30.8594 -82.1617 150° Southeast 166 191 10,200  Level Jacksonville Center
09:27AM 30.8344 -82.1425 147° Southeast 169 194 10,200  Level Jacksonville Center
09:28AM 30.8197 -82.1331 151° Southeast 166 191 10,200 -120 Level Jacksonville Center
09:28AM 30.7944 -82.1164 150° Southeast 169 194 10,100  Descending Jacksonville Center
09:29AM 30.7797 -82.1042 145° Southeast 166 191 10,200 60 Climbing Jacksonville Center
09:29AM 30.7525 -82.0875 152° Southeast 169 194 10,200  Level Jacksonville Center
09:30AM 30.7064 -82.0567 150° Southeast 169 194 10,200  Level Jacksonville Center
09:32AM 30.6644 -82.0281 150° Southeast 171 197 10,200  Level Jacksonville Center
09:33AM 30.6247 -81.9994 148° Southeast 171 197 10,200 -60 Level Jacksonville Center
09:34AM 30.5764 -81.9661 149° Southeast 172 198 10,100  Descending Jacksonville Center
09:35AM 30.5344 -81.9400 152° Southeast 172 198 10,200  Climbing Jacksonville Center
09:36AM 30.4944 -81.9114 148° Southeast 173 199 10,100  Descending Jacksonville Center
09:37AM 30.4567 -81.8853 149° Southeast 172 198 10,200  Climbing Jacksonville Center
09:38AM 30.4125 -81.8569 151° Southeast 171 197 10,200  Level Jacksonville Center
09:39AM 30.3706 -81.8283 150° Southeast 171 197 10,200  Level Jacksonville Center
09:40AM 30.3286 -81.8025 152° Southeast 172 198 10,200  Level Jacksonville Center
09:41AM 30.2886 -81.7692 144° Southeast 169 194 10,200  Level Jacksonville Center
09:42AM 30.2531 -81.7478 153° Southeast 170 196 10,200  Level Jacksonville Center
09:43AM 30.2089 -81.7172 149° Southeast 168 193 10,200  Level Jacksonville Center
09:44AM 30.1669 -81.6914 152° Southeast 169 194 10,200  Level Jacksonville Center
09:45AM 30.1250 -81.6631 150° Southeast 170 196 10,200  Level Jacksonville Center
09:46AM 30.0808 -81.6322 149° Southeast 168 193 10,200  Level Jacksonville Center
09:47AM 30.0472 -81.6089 149° Southeast 169 194 10,200  Level Jacksonville Center
09:48AM 29.9903 -81.5736 152° Southeast 170 196 10,200  Level Jacksonville Center
09:49AM 29.9525 -81.5478 149° Southeast 170 196 10,200  Level Jacksonville Center
09:50AM 29.9125 -81.5219 151° Southeast 171 197 10,200 -60 Level Jacksonville Center
09:51AM 29.8747 -81.4936 147° Southeast 172 198 10,100 -60 Descending Jacksonville Center
09:52AM 29.8325 -81.4656 150° Southeast 171 197 10,100  Level Jacksonville Center
09:53AM 29.7906 -81.4375 150° Southeast 172 198 10,100  Level Jacksonville Center
09:54AM 29.7400 -81.4072 153° Southeast 172 198 10,100  Level Jacksonville Center
09:55AM 29.6981 -81.3767 148° Southeast 172 198 10,100  Level Jacksonville Center
09:56AM 29.6558 -81.3486 150° Southeast 170 196 10,100  Level Jacksonville Center
09:57AM 29.6117 -81.3231 153° Southeast 171 197 10,100  Level Jacksonville Center
09:58AM 29.5697 -81.3000 154° Southeast 171 197 10,100  Level Jacksonville Center
09:59AM 29.5278 -81.2792 157° South 172 198 10,100  Level Jacksonville Center
10:00AM 29.4856 -81.2558 154° Southeast 172 198 10,100  Level Jacksonville Center
10:01AM 29.4436 -81.2328 154° Southeast 172 198 10,200  Climbing Jacksonville Center
10:02AM 29.3931 -81.2050 154° Southeast 173 199 10,100 -60 Descending Jacksonville Center
10:03AM 29.3617 -81.1864 153° Southeast 171 197 10,100  Level Jacksonville Center
10:04AM 29.3111 -81.1611 156° South 172 198 10,100  Level Jacksonville Center
10:05AM 29.2731 -81.1261 141° Southeast 170 196 10,200  Climbing Jacksonville Center
10:06AM 29.2350 -81.0911 141° Southeast 171 197 10,100  Descending Jacksonville Center
10:07AM 29.1992 -81.0608 144° Southeast 170 196 10,200  Climbing Jacksonville Center
10:10AM 29.0833 -81.0167 162° South 177 204 10,100 -60 Descending Orlando TRACON
10:11AM 29.0333 -81.0000 164° South 175 201 10,100  Level Orlando TRACON
10:12AM 28.9833 -80.9833 164° South 174 200 10,200  Climbing Orlando TRACON
10:13AM 28.9500 -80.9667 156° South 171 197 10,100  Descending Orlando TRACON
10:14AM 28.9000 -80.9500 164° South 171 197 10,200  Climbing Orlando TRACON
10:15AM 28.8500 -80.9333 164° South 172 198 10,100 -240 Descending Orlando TRACON
10:16AM 28.8000 -80.9167 164° South 180 207 9,800 -540 Descending Orlando TRACON
10:17AM 28.7500 -80.9000 164° South 197 227 9,100 -720 Descending Orlando TRACON
10:18AM 28.7000 -80.8667 150° Southeast 202 232 8,400 -540 Descending Orlando TRACON
10:19AM 28.6500 -80.8500 164° South 191 220 8,100 -300 Descending Orlando TRACON
10:20AM 28.6000 -80.8333 164° South 178 205 7,900 -420 Descending Orlando TRACON
10:22AM 28.5000 -80.7833 156° South 195 224 6,900 -540 Descending Orlando TRACON
10:23AM 28.4500 -80.7667 164° South 195 224 6,400 -540 Descending Orlando TRACON
10:24AM 28.4000 -80.7667 180° South 193 222 5,900 -540 Descending Orlando TRACON
10:25AM 28.3333 -80.7667 180° South 198 228 5,400 -540 Descending Orlando TRACON
10:26AM 28.2833 -80.7667 180° South 196 226 4,900 -600 Descending Orlando TRACON
10:27AM 28.2333 -80.7667 180° South 193 222 4,300 -360 Descending Orlando TRACON
10:28AM 28.1667 -80.7667 180° South 187 215 4,200 -60 Descending Orlando TRACON
10:29AM 28.1333 -80.7667 180° South 174 200 4,200  Level Orlando TRACON
10:30AM 28.0833 -80.7500 164° South 174 200 4,200  Level Orlando TRACON
10:31AM 28.0333 -80.7500 180° South 172 198 4,200 -60 Level Orlando TRACON
10:32AM 27.9494 -80.7539 182° South 182 209 4,100 -60 Descending Miami Center
10:33AM 27.9014 -80.7500 176° South 176 203 4,100  Level Miami Center
10:34AM 27.8536 -80.7483 178° South 176 203 4,100  Level Miami Center
10:35AM 27.8097 -80.7467 178° South 176 203 4,200  Climbing Miami Center
10:36AM 27.7619 -80.7428 176° South 176 203 4,200  Level Miami Center
10:37AM 27.7208 -80.7181 152° Southeast 161 185 4,200  Level Miami Center
10:38AM 27.6947 -80.6772 126° Southeast 155 178 4,200 -60 Level Miami Center
10:39AM 27.6667 -80.6364 128° Southeast 165 190 4,100 -300 Descending Miami Center
10:40AM 27.6425 -80.5981 125° Southeast 165 190 3,600 -540 Descending Miami Center
10:41AM 27.6164 -80.5575 126° Southeast 165 190 3,100 -600 Descending Miami Center
10:42AM 27.5819 -80.5189 135° Southeast 160 184 2,500 -300 Descending Miami Center
10:43AM 27.5556 -80.4853 132° Southeast 160 184 2,500 720 Level Miami Center
10:44AM 27.5411 -80.4825 170° South 160 184 4,000 -540 Climbing Miami Center
10:45AM 27.4961 -80.4411 141° Southeast 146 168 1,500 -1,680 Descending Miami Center
10:46AM 27.4972 -80.4039 88° East 108 124 700 -840 Descending Miami Center
10:48AM 27.4975 -80.3726 130° Southeast  Level Estimated